createdAt,value
2023-05-16T00:00:38.232Z,3.50
2023-05-16T00:03:06.493Z,3.80
2023-05-16T00:05:33.341Z,3.20
2023-05-16T00:08:00.065Z,3.30
2023-05-16T00:10:26.982Z,5.80
2023-05-16T00:12:54.062Z,13.30
2023-05-16T00:15:20.797Z,12.80
2023-05-16T00:17:47.844Z,16.70
2023-05-16T00:20:17.430Z,20.80
2023-05-16T00:22:44.532Z,16.80
2023-05-16T00:25:11.360Z,14.50
2023-05-16T00:27:38.214Z,13.30
2023-05-16T00:30:05.626Z,15.10
2023-05-16T00:32:32.393Z,13.30
2023-05-16T00:35:00.942Z,8.30
2023-05-16T00:37:27.805Z,8.30
2023-05-16T00:39:54.722Z,15.20
2023-05-16T00:42:21.612Z,11.00
2023-05-16T00:44:48.462Z,10.60
2023-05-16T00:47:16.574Z,12.10
2023-05-16T00:49:43.945Z,13.40
2023-05-16T00:52:11.664Z,11.60
2023-05-16T00:54:39.992Z,11.10
2023-05-16T00:57:07.020Z,9.20
2023-05-16T00:59:33.926Z,8.40
2023-05-16T01:02:00.972Z,7.90
2023-05-16T01:04:28.010Z,5.80
2023-05-16T01:06:56.397Z,4.80
2023-05-16T01:09:23.328Z,4.10
2023-05-16T01:12:36.641Z,3.80
2023-05-16T01:15:13.718Z,3.90
2023-05-16T01:17:46.283Z,4.00
2023-05-16T01:20:34.578Z,4.10
2023-05-16T01:25:39.145Z,4.20
2023-05-16T01:28:05.940Z,3.80
2023-05-16T01:30:37.191Z,4.00
2023-05-16T01:33:04.087Z,3.70
2023-05-16T01:35:31.120Z,4.10
2023-05-16T01:38:04.237Z,3.80
2023-05-16T01:40:35.614Z,4.20
2023-05-16T01:43:05.145Z,4.20
2023-05-16T01:45:35.029Z,4.80
2023-05-16T01:48:07.646Z,3.60
2023-05-16T01:50:36.906Z,4.10
2023-05-16T01:53:11.447Z,4.20
2023-05-16T01:55:48.997Z,4.60
2023-05-16T01:58:18.284Z,4.10
2023-05-16T02:00:45.107Z,4.40
2023-05-16T02:03:12.097Z,4.10
2023-05-16T02:05:39.218Z,3.90
2023-05-16T02:08:08.468Z,4.50
2023-05-16T02:10:35.314Z,4.50
2023-05-16T02:13:02.060Z,4.40
2023-05-16T02:15:29.065Z,3.60
2023-05-16T02:17:56.592Z,4.00
2023-05-16T02:20:23.442Z,4.00
2023-05-16T02:22:51.360Z,4.00
2023-05-16T02:25:18.465Z,4.40
2023-05-16T02:27:45.311Z,4.30
2023-05-16T02:30:12.909Z,4.30
2023-05-16T02:32:40.440Z,4.10
2023-05-16T02:35:08.496Z,4.40
2023-05-16T02:37:35.514Z,4.00
2023-05-16T02:40:04.061Z,3.80
2023-05-16T02:42:32.187Z,4.40
2023-05-16T02:44:58.974Z,4.30
2023-05-16T02:47:26.261Z,3.80
2023-05-16T02:49:53.178Z,5.10
2023-05-16T02:52:19.978Z,4.10
2023-05-16T02:54:48.856Z,4.40
2023-05-16T02:57:27.045Z,4.00
2023-05-16T02:59:53.853Z,4.20
2023-05-16T03:02:21.150Z,4.00
2023-05-16T03:04:48.101Z,3.80
2023-05-16T03:07:14.903Z,4.30
2023-05-16T03:09:41.996Z,4.70
2023-05-16T03:12:08.844Z,4.10
2023-05-16T03:14:35.951Z,4.30
2023-05-16T03:17:03.732Z,4.30
2023-05-16T03:19:30.597Z,4.70
2023-05-16T03:21:57.708Z,4.00
2023-05-16T03:24:25.413Z,4.50
2023-05-16T03:26:52.223Z,4.10
2023-05-16T03:29:21.089Z,4.40
2023-05-16T03:31:47.925Z,4.40
2023-05-16T03:34:14.726Z,4.00
2023-05-16T03:36:41.617Z,3.90
2023-05-16T03:39:08.904Z,4.40
2023-05-16T03:41:35.718Z,4.10
2023-05-16T03:44:02.479Z,4.10
2023-05-16T03:46:29.381Z,4.10
2023-05-16T03:48:56.327Z,4.50
2023-05-16T03:51:25.370Z,3.70
2023-05-16T03:53:52.105Z,3.80
2023-05-16T03:56:19.171Z,4.10
2023-05-16T03:58:46.098Z,4.10
2023-05-16T04:01:12.867Z,3.80
2023-05-16T04:03:39.981Z,3.70
2023-05-16T04:06:07.580Z,4.00
2023-05-16T04:08:34.582Z,3.90
2023-05-16T04:11:01.574Z,3.40
2023-05-16T04:13:28.316Z,3.70
2023-05-16T04:15:55.295Z,4.40
2023-05-16T04:18:22.243Z,4.30
2023-05-16T04:20:49.090Z,3.60
2023-05-16T04:23:16.952Z,4.20
2023-05-16T04:25:44.102Z,3.60
2023-05-16T04:28:11.283Z,4.50
2023-05-16T04:30:38.416Z,5.10
2023-05-16T04:33:05.495Z,3.90
2023-05-16T04:35:33.469Z,3.90
2023-05-16T04:38:00.311Z,4.50
2023-05-16T04:40:27.803Z,3.90
2023-05-16T04:42:55.536Z,3.80
2023-05-16T04:45:22.582Z,4.40
2023-05-16T04:47:49.421Z,3.60
2023-05-16T04:50:16.854Z,4.00
2023-05-16T04:52:43.686Z,4.50
2023-05-16T04:55:13.256Z,4.30
2023-05-16T04:57:40.126Z,3.60
2023-05-16T05:00:12.134Z,4.00
2023-05-16T05:02:39.116Z,4.40
2023-05-16T05:05:07.000Z,3.80
2023-05-16T05:07:34.340Z,4.30
2023-05-16T05:10:05.307Z,3.60
2023-05-16T05:12:32.061Z,3.40
2023-05-16T05:14:58.996Z,3.80
2023-05-16T05:17:25.934Z,3.70
2023-05-16T05:19:52.844Z,3.30
2023-05-16T05:22:19.767Z,4.00
2023-05-16T05:24:46.636Z,4.20
2023-05-16T05:27:13.427Z,3.90
2023-05-16T05:29:40.587Z,3.60
2023-05-16T05:32:08.892Z,3.20
2023-05-16T05:34:35.899Z,3.20
2023-05-16T05:37:02.879Z,3.40
2023-05-16T05:39:29.887Z,3.40
2023-05-16T05:41:56.614Z,3.70
2023-05-16T05:44:23.785Z,3.70
2023-05-16T05:46:51.436Z,3.50
2023-05-16T05:49:18.271Z,3.60
2023-05-16T05:51:45.179Z,3.50
2023-05-16T05:54:11.944Z,4.00
2023-05-16T05:56:38.738Z,4.50
2023-05-16T05:59:05.634Z,4.20
2023-05-16T06:01:32.443Z,4.20
2023-05-16T06:04:00.159Z,4.30
2023-05-16T06:06:29.422Z,3.70
2023-05-16T06:08:56.306Z,4.40
2023-05-16T06:11:23.461Z,4.00
2023-05-16T06:13:50.627Z,3.30
2023-05-16T06:16:17.584Z,9.00
2023-05-16T06:18:44.665Z,3.50
2023-05-16T06:21:11.600Z,3.80
2023-05-16T06:23:38.752Z,3.20
2023-05-16T06:26:05.566Z,3.60
2023-05-16T06:28:32.365Z,3.30
2023-05-16T06:30:59.189Z,4.00
2023-05-16T06:33:26.041Z,3.40
2023-05-16T06:35:52.954Z,4.00
2023-05-16T06:38:19.958Z,4.00
2023-05-16T06:40:46.961Z,4.10
2023-05-16T06:43:13.978Z,3.40
2023-05-16T06:45:41.436Z,3.30
2023-05-16T06:48:08.723Z,3.40
2023-05-16T06:50:36.016Z,3.60
2023-05-16T06:53:05.023Z,3.90
2023-05-16T06:55:31.839Z,3.90
2023-05-16T06:57:58.655Z,3.30
2023-05-16T07:00:25.871Z,3.30
2023-05-16T07:02:53.420Z,3.70
2023-05-16T07:05:20.369Z,4.20
2023-05-16T07:07:47.929Z,3.40
2023-05-16T07:10:16.121Z,3.20
2023-05-16T07:12:43.470Z,3.70
2023-05-16T07:15:10.936Z,3.90
2023-05-16T07:17:37.895Z,3.70
2023-05-16T07:20:06.657Z,3.70
2023-05-16T07:22:33.829Z,3.50
2023-05-16T07:25:04.548Z,4.00
2023-05-16T07:27:32.222Z,3.80
2023-05-16T07:29:59.069Z,3.80
2023-05-16T07:32:25.987Z,3.20
2023-05-16T07:34:52.817Z,3.60
2023-05-16T07:37:20.702Z,3.70
2023-05-16T07:39:47.555Z,4.30
2023-05-16T07:42:14.641Z,3.40
2023-05-16T07:44:41.940Z,3.60
2023-05-16T07:47:08.807Z,3.90
2023-05-16T07:49:35.701Z,4.00
2023-05-16T07:52:02.526Z,4.20
2023-05-16T07:54:29.837Z,3.60
2023-05-16T07:56:56.950Z,4.30
2023-05-16T07:59:23.800Z,4.40
2023-05-16T08:01:51.122Z,4.20
2023-05-16T08:04:18.298Z,4.20
2023-05-16T08:06:45.681Z,4.30
2023-05-16T08:09:12.505Z,4.90
2023-05-16T08:11:40.171Z,4.50
2023-05-16T08:14:07.096Z,4.70
2023-05-16T08:16:34.071Z,4.60
2023-05-16T08:19:01.170Z,3.90
2023-05-16T08:21:28.113Z,4.40
2023-05-16T08:23:55.022Z,4.50
2023-05-16T08:26:22.143Z,4.80
2023-05-16T08:28:49.686Z,4.30
2023-05-16T08:31:16.787Z,4.20
2023-05-16T08:33:43.821Z,5.40
2023-05-16T08:36:10.837Z,3.90
2023-05-16T08:38:37.678Z,3.90
2023-05-16T08:41:04.820Z,4.40
2023-05-16T08:43:31.965Z,4.40
2023-05-16T08:45:59.472Z,4.60
2023-05-16T08:48:26.728Z,4.40
2023-05-16T08:50:53.782Z,5.20
2023-05-16T08:53:28.008Z,4.80
2023-05-16T08:55:55.112Z,5.00
2023-05-16T08:58:22.142Z,5.30
2023-05-16T09:00:49.145Z,7.60
2023-05-16T09:03:16.202Z,5.30
2023-05-16T09:05:43.103Z,4.70
2023-05-16T09:08:10.005Z,5.20
2023-05-16T09:10:36.954Z,4.90
2023-05-16T09:13:04.589Z,6.00
2023-05-16T09:15:32.863Z,5.50
2023-05-16T09:18:03.267Z,6.50
2023-05-16T09:20:30.271Z,5.90
2023-05-16T09:23:00.087Z,5.90
2023-05-16T09:25:30.975Z,6.20
2023-05-16T09:28:00.062Z,5.70
2023-05-16T09:30:34.853Z,5.40
2023-05-16T09:33:02.120Z,5.40
2023-05-16T09:37:59.089Z,5.00
2023-05-16T09:40:26.254Z,4.90
2023-05-16T09:43:06.387Z,5.50
2023-05-16T09:45:34.396Z,5.20
2023-05-16T09:48:05.821Z,5.20
2023-05-16T09:50:34.427Z,5.00
2023-05-16T09:53:02.404Z,5.00
2023-05-16T09:55:29.473Z,5.00
2023-05-16T09:57:56.503Z,4.80
2023-05-16T10:00:23.658Z,5.10
2023-05-16T10:02:50.624Z,5.00
2023-05-16T10:05:18.014Z,4.90
2023-05-16T10:07:44.961Z,4.80
2023-05-16T10:10:11.935Z,4.70
2023-05-16T10:12:38.822Z,5.20
2023-05-16T10:15:06.053Z,4.60
2023-05-16T10:17:34.573Z,4.50
2023-05-16T10:20:06.016Z,4.50
2023-05-16T10:22:36.126Z,5.00
2023-05-16T10:25:34.700Z,5.10
2023-05-16T10:28:01.548Z,4.00
2023-05-16T10:30:28.478Z,4.30
2023-05-16T10:32:57.708Z,4.20
2023-05-16T10:35:24.594Z,4.30
2023-05-16T10:37:51.614Z,4.60
2023-05-16T10:40:18.556Z,3.70
2023-05-16T10:42:59.209Z,4.30
2023-05-16T10:45:26.923Z,4.70
2023-05-16T10:47:55.910Z,4.70
2023-05-16T10:50:36.716Z,4.00
2023-05-16T10:53:19.346Z,4.30
2023-05-16T10:56:04.486Z,3.80
2023-05-16T10:58:31.419Z,4.70
2023-05-16T11:01:17.454Z,4.20
2023-05-16T11:04:00.229Z,4.70
2023-05-16T11:06:35.277Z,3.70
2023-05-16T11:09:11.471Z,6.70
2023-05-16T11:12:03.754Z,4.20
2023-05-16T11:14:34.038Z,4.70
2023-05-16T11:17:17.068Z,4.40
2023-05-16T11:19:49.499Z,4.40
2023-05-16T11:22:24.078Z,4.70
2023-05-16T11:25:02.340Z,4.50
2023-05-16T11:27:47.945Z,4.40
2023-05-16T11:30:17.131Z,4.30
2023-05-16T11:32:45.629Z,4.80
2023-05-16T11:35:15.205Z,4.50
2023-05-16T11:37:42.859Z,4.30
2023-05-16T11:40:11.509Z,4.70
2023-05-16T11:42:43.220Z,4.50
2023-05-16T11:45:21.532Z,3.70
2023-05-16T11:47:48.848Z,4.40
2023-05-16T11:50:17.702Z,4.50
2023-05-16T11:52:46.133Z,5.20
2023-05-16T11:55:15.630Z,3.90
2023-05-16T12:00:18.034Z,4.20
2023-05-16T12:02:49.206Z,4.70
2023-05-16T12:05:17.373Z,5.20
2023-05-16T12:07:45.033Z,4.60
2023-05-16T12:10:15.766Z,4.60
2023-05-16T12:12:44.407Z,4.00
2023-05-16T12:15:11.696Z,4.00
2023-05-16T12:17:40.942Z,4.40
2023-05-16T12:20:14.413Z,4.50
2023-05-16T12:22:44.017Z,4.40
2023-05-16T12:25:22.118Z,4.20
2023-05-16T12:27:49.654Z,4.50
2023-05-16T12:30:21.525Z,4.40
2023-05-16T12:32:56.342Z,4.70
2023-05-16T12:35:24.619Z,4.80
2023-05-16T12:37:52.036Z,4.20
2023-05-16T12:40:20.736Z,4.90
2023-05-16T12:42:56.644Z,4.40
2023-05-16T12:45:23.654Z,4.60
2023-05-16T12:47:51.097Z,4.40
2023-05-16T12:50:18.008Z,4.40
2023-05-16T12:52:52.231Z,4.60
2023-05-16T12:55:22.434Z,4.30
2023-05-16T12:57:51.009Z,4.70
2023-05-16T13:00:19.568Z,4.00
2023-05-16T13:02:47.805Z,4.70
2023-05-16T13:05:15.527Z,4.80
2023-05-16T13:07:43.283Z,5.10
2023-05-16T13:10:11.097Z,4.60
2023-05-16T13:12:39.472Z,4.80
2023-05-16T13:15:10.841Z,5.20
2023-05-16T13:17:38.465Z,5.40
2023-05-16T13:20:09.826Z,7.10
2023-05-16T13:22:37.218Z,5.60
2023-05-16T13:25:08.320Z,5.40
2023-05-16T13:27:35.181Z,5.10
2023-05-16T13:30:05.297Z,5.60
2023-05-16T13:32:32.218Z,5.30
2023-05-16T13:35:00.948Z,5.40
2023-05-16T13:37:27.816Z,5.00
2023-05-16T13:42:23.522Z,5.40
2023-05-16T13:44:50.872Z,4.90
2023-05-16T13:47:17.768Z,5.70
2023-05-16T13:49:47.563Z,4.80
2023-05-16T13:52:15.233Z,4.30
2023-05-16T13:54:42.183Z,5.70
2023-05-16T13:57:09.189Z,4.60
2023-05-16T14:00:10.811Z,5.20
2023-05-16T14:02:26.445Z,5.70
2023-05-16T14:04:53.967Z,4.50
2023-05-16T14:07:20.844Z,4.80
2023-05-16T14:09:47.902Z,5.10
2023-05-16T14:12:14.953Z,5.20
2023-05-16T14:14:42.202Z,6.20
2023-05-16T14:17:09.173Z,5.10
2023-05-16T14:19:36.634Z,4.50
2023-05-16T14:22:03.800Z,4.90
2023-05-16T14:24:31.375Z,4.60
2023-05-16T14:26:58.508Z,4.60
2023-05-16T14:29:25.823Z,5.00
2023-05-16T14:31:53.296Z,4.70
2023-05-16T14:34:20.404Z,4.30
2023-05-16T14:36:47.331Z,4.30
2023-05-16T14:39:14.879Z,4.70
2023-05-16T14:41:42.101Z,4.60
2023-05-16T14:44:08.990Z,5.00
2023-05-16T14:46:38.014Z,5.20
2023-05-16T14:49:05.093Z,4.40
2023-05-16T14:51:32.573Z,4.30
2023-05-16T14:54:00.520Z,5.00
2023-05-16T14:56:28.345Z,4.20
2023-05-16T14:58:55.864Z,4.40
2023-05-16T15:01:23.287Z,4.00
2023-05-16T15:03:55.225Z,3.90
2023-05-16T15:06:24.127Z,4.00
2023-05-16T15:08:51.282Z,4.00
2023-05-16T15:11:18.366Z,4.20
2023-05-16T15:13:45.676Z,3.90
2023-05-16T15:16:12.708Z,4.00
2023-05-16T15:18:40.642Z,3.70
2023-05-16T15:21:07.662Z,4.00
2023-05-16T15:23:34.602Z,4.90
2023-05-16T15:26:01.534Z,3.70
2023-05-16T15:28:28.450Z,4.10
2023-05-16T15:30:55.452Z,3.80
2023-05-16T15:33:22.273Z,3.70
2023-05-16T15:35:50.056Z,3.80
2023-05-16T15:38:16.924Z,4.30
2023-05-16T15:40:43.715Z,3.60
2023-05-16T15:43:10.542Z,3.60
2023-05-16T15:45:40.102Z,3.90
2023-05-16T15:48:07.933Z,3.40
2023-05-16T15:50:34.899Z,4.00
2023-05-16T15:53:01.944Z,3.80
2023-05-16T15:55:29.120Z,4.10
2023-05-16T15:57:58.732Z,4.60
2023-05-16T16:00:26.303Z,3.70
2023-05-16T16:02:54.480Z,4.20
2023-05-16T16:05:21.551Z,3.80
2023-05-16T16:07:48.450Z,3.80
2023-05-16T16:10:15.505Z,4.20
2023-05-16T16:12:42.314Z,4.30
2023-05-16T16:15:10.737Z,3.30
2023-05-16T16:17:37.848Z,4.30
2023-05-16T16:20:05.642Z,4.20
2023-05-16T16:22:32.479Z,3.60
2023-05-16T16:25:00.824Z,3.60
2023-05-16T16:27:27.661Z,4.40
2023-05-16T16:29:54.616Z,3.40
2023-05-16T16:32:21.417Z,4.10
2023-05-16T16:34:48.404Z,4.40
2023-05-16T16:37:15.388Z,3.50
2023-05-16T16:39:43.750Z,3.80
2023-05-16T16:42:10.807Z,3.90
2023-05-16T16:44:37.988Z,3.80
2023-05-16T16:47:05.238Z,3.70
2023-05-16T16:49:33.008Z,3.90
2023-05-16T16:52:00.916Z,4.10
2023-05-16T16:54:28.711Z,4.60
2023-05-16T16:56:56.406Z,3.80
2023-05-16T16:59:23.607Z,4.50
2023-05-16T17:01:50.837Z,4.20
2023-05-16T17:04:17.893Z,4.80
2023-05-16T17:06:48.666Z,4.80
2023-05-16T17:09:18.018Z,5.10
2023-05-16T17:11:46.839Z,4.30
2023-05-16T17:14:14.818Z,4.60
2023-05-16T17:16:44.704Z,4.30
2023-05-16T17:19:12.072Z,4.30
2023-05-16T17:21:40.948Z,4.50
2023-05-16T17:24:09.886Z,5.10
2023-05-16T17:26:37.050Z,5.00
2023-05-16T17:29:05.185Z,5.10
2023-05-16T17:31:32.675Z,4.40
2023-05-16T17:33:59.919Z,4.70
2023-05-16T17:36:28.636Z,4.80
2023-05-16T17:38:55.661Z,4.90
2023-05-16T17:41:22.864Z,4.80
2023-05-16T17:43:49.810Z,4.40
2023-05-16T17:46:16.862Z,4.40
2023-05-16T17:48:44.025Z,4.50
2023-05-16T17:51:13.034Z,4.50
2023-05-16T17:53:39.872Z,4.80
2023-05-16T17:56:07.768Z,5.00
2023-05-16T17:58:35.238Z,4.90
2023-05-16T18:01:05.107Z,4.90
2023-05-16T18:03:32.170Z,4.80
2023-05-16T18:06:02.888Z,13.80
2023-05-16T18:08:33.067Z,6.70
2023-05-16T18:11:00.040Z,6.10
2023-05-16T18:13:30.335Z,5.20
2023-05-16T18:15:57.651Z,4.80
2023-05-16T18:18:24.670Z,5.30
2023-05-16T18:20:52.796Z,4.90
2023-05-16T18:23:20.650Z,4.90
2023-05-16T18:25:47.671Z,5.00
2023-05-16T18:28:14.506Z,5.60
2023-05-16T18:30:41.676Z,5.10
2023-05-16T18:33:08.672Z,4.50
2023-05-16T18:35:37.524Z,4.50
2023-05-16T18:38:04.677Z,4.40
2023-05-16T18:40:31.508Z,4.50
2023-05-16T18:42:58.845Z,4.20
2023-05-16T18:45:26.508Z,5.10
2023-05-16T18:47:53.865Z,4.90
2023-05-16T18:50:22.118Z,4.30
2023-05-16T18:52:49.623Z,4.90
2023-05-16T18:55:16.703Z,4.30
2023-05-16T18:57:45.357Z,3.90
2023-05-16T19:00:13.343Z,4.30
2023-05-16T19:02:42.371Z,4.30
2023-05-16T19:05:10.775Z,4.50
2023-05-16T19:07:38.023Z,4.30
2023-05-16T19:10:05.707Z,4.40
2023-05-16T19:12:32.650Z,4.50
2023-05-16T19:14:59.524Z,3.90
2023-05-16T19:17:26.428Z,4.00
2023-05-16T19:19:53.401Z,3.60
2023-05-16T19:22:20.751Z,3.80
2023-05-16T19:24:47.574Z,4.30
2023-05-16T19:27:14.438Z,4.70
2023-05-16T19:29:41.347Z,4.70
2023-05-16T19:32:08.294Z,4.40
2023-05-16T19:34:35.601Z,4.20
2023-05-16T19:37:03.559Z,4.20
2023-05-16T19:39:32.786Z,3.90
2023-05-16T19:42:07.095Z,3.90
2023-05-16T19:44:35.245Z,4.20
2023-05-16T19:47:02.099Z,4.50
2023-05-16T19:49:40.365Z,3.90
2023-05-16T19:52:10.451Z,4.00
2023-05-16T19:54:37.339Z,4.90
2023-05-16T19:57:04.458Z,4.10
2023-05-16T19:59:36.249Z,4.20
2023-05-16T20:02:04.437Z,4.60
2023-05-16T20:04:31.452Z,4.60
2023-05-16T20:06:58.359Z,5.00
2023-05-16T20:09:25.415Z,4.00
2023-05-16T20:11:53.686Z,4.20
2023-05-16T20:14:20.849Z,3.50
2023-05-16T20:16:47.798Z,4.30
2023-05-16T20:19:15.389Z,4.10
2023-05-16T20:21:44.227Z,4.50
2023-05-16T20:24:11.156Z,4.60
2023-05-16T20:26:40.736Z,4.10
2023-05-16T20:29:07.629Z,4.30
2023-05-16T20:31:34.595Z,4.30
2023-05-16T20:34:01.462Z,4.10
2023-05-16T20:36:28.997Z,3.90
2023-05-16T20:38:55.827Z,4.70
2023-05-16T20:41:22.662Z,4.00
2023-05-16T20:43:50.752Z,4.00
2023-05-16T20:46:17.638Z,4.50
2023-05-16T20:48:44.474Z,4.40
2023-05-16T20:51:11.287Z,4.20
2023-05-16T20:53:38.079Z,4.70
2023-05-16T20:56:05.362Z,4.20
2023-05-16T20:58:32.212Z,4.50
2023-05-16T21:00:59.106Z,4.20
2023-05-16T21:03:25.904Z,4.30
2023-05-16T21:05:52.789Z,4.60
2023-05-16T21:08:19.728Z,4.50
2023-05-16T21:10:46.552Z,4.50
2023-05-16T21:13:13.348Z,4.40
2023-05-16T21:15:40.222Z,4.40
2023-05-16T21:18:07.251Z,3.90
2023-05-16T21:20:34.153Z,4.70
2023-05-16T21:23:01.157Z,4.60
2023-05-16T21:25:28.262Z,4.20
2023-05-16T21:27:55.295Z,4.50
2023-05-16T21:30:22.202Z,4.60
2023-05-16T21:32:49.173Z,4.10
2023-05-16T21:35:16.152Z,4.50
2023-05-16T21:37:43.031Z,4.30
2023-05-16T21:40:10.265Z,4.30
2023-05-16T21:42:37.126Z,4.90
2023-05-16T21:45:04.331Z,4.60
2023-05-16T21:47:31.294Z,4.40
2023-05-16T21:49:58.087Z,4.00
2023-05-16T21:52:26.038Z,4.20
2023-05-16T21:54:52.835Z,4.20
2023-05-16T21:57:20.014Z,4.60
2023-05-16T21:59:50.320Z,4.60
2023-05-16T22:02:22.579Z,4.20
2023-05-16T22:04:50.100Z,4.20
2023-05-16T22:07:16.904Z,4.10
2023-05-16T22:09:43.704Z,4.90
2023-05-16T22:12:10.505Z,4.50
2023-05-16T22:14:37.319Z,3.90
2023-05-16T22:17:04.191Z,4.20
2023-05-16T22:19:31.065Z,4.40
2023-05-16T22:21:57.898Z,4.10
2023-05-16T22:24:24.692Z,4.20
2023-05-16T22:26:51.520Z,4.00
2023-05-16T22:29:18.463Z,4.70
2023-05-16T22:31:45.268Z,4.20
2023-05-16T22:34:12.136Z,4.30
2023-05-16T22:36:39.396Z,4.70
2023-05-16T22:39:07.172Z,4.30
2023-05-16T22:41:33.999Z,4.50
2023-05-16T22:44:00.828Z,4.70
2023-05-16T22:46:27.652Z,3.80
2023-05-16T22:48:54.614Z,4.60
2023-05-16T22:51:21.492Z,4.30
2023-05-16T22:53:48.267Z,4.40
2023-05-16T22:56:15.143Z,4.70
2023-05-16T22:58:42.103Z,4.40
2023-05-16T23:01:09.073Z,4.50
2023-05-16T23:03:36.248Z,4.60
2023-05-16T23:06:03.714Z,4.30
2023-05-16T23:08:30.547Z,4.60
2023-05-16T23:10:57.466Z,4.50
2023-05-16T23:13:24.313Z,4.50
2023-05-16T23:15:51.161Z,4.80
2023-05-16T23:18:18.035Z,4.70
2023-05-16T23:20:44.999Z,4.20
2023-05-16T23:23:11.768Z,5.00
2023-05-16T23:25:38.637Z,4.70
2023-05-16T23:28:05.469Z,4.60
2023-05-16T23:30:32.222Z,4.60
2023-05-16T23:32:59.167Z,5.00
2023-05-16T23:35:26.350Z,5.30
2023-05-16T23:37:53.844Z,4.80
2023-05-16T23:40:20.699Z,4.20
2023-05-16T23:42:47.559Z,4.90
2023-05-16T23:45:14.337Z,4.40
2023-05-16T23:47:41.361Z,4.40
2023-05-16T23:50:08.761Z,4.80
2023-05-16T23:52:35.628Z,4.30
2023-05-16T23:55:02.414Z,4.90
2023-05-16T23:57:29.324Z,4.70
2023-05-16T23:59:56.363Z,5.00
